sensor_id;sensor_type;location;lat;lon;timestamp;pressure;altitude;pressure_sealevel;temperature;humidity
25855;BME280;13680;49.936;11.344;2022-08-19T00:01:47;96150.25;;;21.86;78.37
25855;BME280;13680;49.936;11.344;2022-08-19T00:04:15;96148.69;;;21.89;77.96
25855;BME280;13680;49.936;11.344;2022-08-19T00:06:42;96149.09;;;21.84;77.99
25855;BME280;13680;49.936;11.344;2022-08-19T00:09:11;96149.47;;;21.82;77.95
25855;BME280;13680;49.936;11.344;2022-08-19T00:11:37;96147.91;;;21.70;78.66
25855;BME280;13680;49.936;11.344;2022-08-19T00:14:04;96150.22;;;21.65;79.07
25855;BME280;13680;49.936;11.344;2022-08-19T00:16:31;96143.97;;;21.68;79.27
25855;BME280;13680;49.936;11.344;2022-08-19T00:18:56;96136.16;;;21.73;79.85
25855;BME280;13680;49.936;11.344;2022-08-19T00:21:24;96134.59;;;21.65;81.60
25855;BME280;13680;49.936;11.344;2022-08-19T00:23:50;96120.94;;;21.69;81.25
25855;BME280;13680;49.936;11.344;2022-08-19T00:26:15;96122.47;;;21.73;80.77
25855;BME280;13680;49.936;11.344;2022-08-19T00:28:41;96114.28;;;21.73;80.23
25855;BME280;13680;49.936;11.344;2022-08-19T00:31:07;96115.47;;;21.69;79.78
25855;BME280;13680;49.936;11.344;2022-08-19T00:33:33;96124.44;;;21.69;79.29
25855;BME280;13680;49.936;11.344;2022-08-19T00:36:00;96123.25;;;21.63;79.38
25855;BME280;13680;49.936;11.344;2022-08-19T00:38:26;96124.03;;;21.60;79.88
25855;BME280;13680;49.936;11.344;2022-08-19T00:40:51;96122.09;;;21.64;79.70
25855;BME280;13680;49.936;11.344;2022-08-19T00:43:23;96122.47;;;21.59;80.40
25855;BME280;13680;49.936;11.344;2022-08-19T00:45:50;96121.28;;;21.56;80.87
25855;BME280;13680;49.936;11.344;2022-08-19T00:48:17;96116.56;;;21.50;81.25
25855;BME280;13680;49.936;11.344;2022-08-19T00:50:44;96129.88;;;21.55;80.58
25855;BME280;13680;49.936;11.344;2022-08-19T00:53:12;96130.66;;;21.59;79.78
25855;BME280;13680;49.936;11.344;2022-08-19T00:55:41;96141.63;;;21.59;79.51
25855;BME280;13680;49.936;11.344;2022-08-19T00:58:11;96133.00;;;21.57;79.07
25855;BME280;13680;49.936;11.344;2022-08-19T01:00:38;96140.81;;;21.55;79.08
25855;BME280;13680;49.936;11.344;2022-08-19T01:03:10;96139.22;;;21.50;79.32
25855;BME280;13680;49.936;11.344;2022-08-19T01:05:37;96147.81;;;21.49;79.89
25855;BME280;13680;49.936;11.344;2022-08-19T01:08:05;96139.19;;;21.47;80.02
25855;BME280;13680;49.936;11.344;2022-08-19T01:10:35;96141.56;;;21.45;80.67
25855;BME280;13680;49.936;11.344;2022-08-19T01:13:03;96141.53;;;21.48;80.67
25855;BME280;13680;49.936;11.344;2022-08-19T01:15:32;96149.75;;;21.41;81.30
25855;BME280;13680;49.936;11.344;2022-08-19T01:18:01;96147.75;;;21.38;82.33
25855;BME280;13680;49.936;11.344;2022-08-19T01:20:29;96130.16;;;21.32;81.50
25855;BME280;13680;49.936;11.344;2022-08-19T01:22:57;96130.53;;;21.26;81.76
25855;BME280;13680;49.936;11.344;2022-08-19T01:25:29;96123.50;;;21.22;82.21
25855;BME280;13680;49.936;11.344;2022-08-19T01:27:57;96121.16;;;21.20;82.12
25855;BME280;13680;49.936;11.344;2022-08-19T01:30:26;96119.94;;;21.11;82.32
25855;BME280;13680;49.936;11.344;2022-08-19T01:32:53;96129.72;;;21.19;81.43
25855;BME280;13680;49.936;11.344;2022-08-19T01:35:20;96128.13;;;21.11;81.07
25855;BME280;13680;49.936;11.344;2022-08-19T01:38:22;96126.09;;;20.93;81.99
25855;BME280;13680;49.936;11.344;2022-08-19T01:40:49;96129.66;;;21.01;81.94
25855;BME280;13680;49.936;11.344;2022-08-19T01:43:14;96136.69;;;21.02;82.10
25855;BME280;13680;49.936;11.344;2022-08-19T01:45:40;96143.34;;;21.08;81.58
25855;BME280;13680;49.936;11.344;2022-08-19T01:48:06;96149.97;;;21.03;81.74
25855;BME280;13680;49.936;11.344;2022-08-19T01:50:33;96156.22;;;21.07;81.92
25855;BME280;13680;49.936;11.344;2022-08-19T01:53:00;96157.03;;;21.12;81.66
25855;BME280;13680;49.936;11.344;2022-08-19T01:55:26;96146.09;;;21.12;82.43
25855;BME280;13680;49.936;11.344;2022-08-19T01:57:54;96142.59;;;21.15;82.82
25855;BME280;13680;49.936;11.344;2022-08-19T02:00:23;96149.22;;;21.14;83.02
25855;BME280;13680;49.936;11.344;2022-08-19T02:02:49;96146.13;;;21.19;83.37
25855;BME280;13680;49.936;11.344;2022-08-19T02:05:14;96151.63;;;21.26;82.96
25855;BME280;13680;49.936;11.344;2022-08-19T02:07:41;96158.69;;;21.31;82.65
25855;BME280;13680;49.936;11.344;2022-08-19T02:10:10;96164.97;;;21.38;81.64
25855;BME280;13680;49.936;11.344;2022-08-19T02:12:36;96177.47;;;21.39;81.16
25855;BME280;13680;49.936;11.344;2022-08-19T02:15:02;96197.38;;;21.36;80.62
25855;BME280;13680;49.936;11.344;2022-08-19T02:17:29;96200.88;;;21.30;81.67
25855;BME280;13680;49.936;11.344;2022-08-19T02:19:57;96213.38;;;21.27;82.02
25855;BME280;13680;49.936;11.344;2022-08-19T02:22:24;96218.03;;;21.23;82.45
25855;BME280;13680;49.936;11.344;2022-08-19T02:24:51;96213.72;;;21.22;83.18
25855;BME280;13680;49.936;11.344;2022-08-19T02:27:17;96197.72;;;21.28;83.35
25855;BME280;13680;49.936;11.344;2022-08-19T02:29:43;96190.72;;;21.30;82.93
25855;BME280;13680;49.936;11.344;2022-08-19T02:32:10;96199.31;;;21.32;82.52
25855;BME280;13680;49.936;11.344;2022-08-19T02:34:35;96201.66;;;21.30;82.68
25855;BME280;13680;49.936;11.344;2022-08-19T02:37:01;96209.06;;;21.30;83.47
25855;BME280;13680;49.936;11.344;2022-08-19T02:39:26;96218.44;;;21.29;83.81
25855;BME280;13680;49.936;11.344;2022-08-19T02:41:51;96232.91;;;21.33;83.43
25855;BME280;13680;49.936;11.344;2022-08-19T02:44:17;96238.34;;;21.29;83.58
25855;BME280;13680;49.936;11.344;2022-08-19T02:46:45;96240.72;;;21.34;82.82
25855;BME280;13680;49.936;11.344;2022-08-19T02:49:11;96240.75;;;21.38;82.46
25855;BME280;13680;49.936;11.344;2022-08-19T02:51:40;96247.03;;;21.38;82.66
25855;BME280;13680;49.936;11.344;2022-08-19T02:54:07;96240.38;;;21.39;82.78
25855;BME280;13680;49.936;11.344;2022-08-19T02:56:37;96237.28;;;21.45;82.49
25855;BME280;13680;49.936;11.344;2022-08-19T02:59:04;96240.38;;;21.39;83.44
25855;BME280;13680;49.936;11.344;2022-08-19T03:01:34;96241.56;;;21.46;82.92
25855;BME280;13680;49.936;11.344;2022-08-19T03:04:02;96251.38;;;21.50;82.71
25855;BME280;13680;49.936;11.344;2022-08-19T03:06:28;96254.09;;;21.50;82.49
25855;BME280;13680;49.936;11.344;2022-08-19T03:08:54;96263.50;;;21.53;82.47
25855;BME280;13680;49.936;11.344;2022-08-19T03:11:31;96258.00;;;21.49;82.80
25855;BME280;13680;49.936;11.344;2022-08-19T03:13:58;96259.59;;;21.54;82.36
25855;BME280;13680;49.936;11.344;2022-08-19T03:16:26;96262.75;;;21.56;81.72
25855;BME280;13680;49.936;11.344;2022-08-19T03:18:52;96247.47;;;21.51;81.79
25855;BME280;13680;49.936;11.344;2022-08-19T03:21:24;96244.72;;;21.48;82.27
25855;BME280;13680;49.936;11.344;2022-08-19T03:23:54;96251.75;;;21.49;82.38
25855;BME280;13680;49.936;11.344;2022-08-19T03:26:19;96246.25;;;21.45;82.77
25855;BME280;13680;49.936;11.344;2022-08-19T03:28:45;96260.75;;;21.53;82.32
25855;BME280;13680;49.936;11.344;2022-08-19T03:31:16;96249.81;;;21.53;81.98
25855;BME280;13680;49.936;11.344;2022-08-19T03:33:42;96235.72;;;21.44;83.22
25855;BME280;13680;49.936;11.344;2022-08-19T03:36:13;96227.53;;;21.47;83.29
25855;BME280;13680;49.936;11.344;2022-08-19T03:38:43;96234.53;;;21.48;83.33
25855;BME280;13680;49.936;11.344;2022-08-19T03:41:12;96225.97;;;21.53;83.14
25855;BME280;13680;49.936;11.344;2022-08-19T03:43:39;96227.53;;;21.54;83.10
25855;BME280;13680;49.936;11.344;2022-08-19T03:46:09;96219.78;;;21.56;82.71
25855;BME280;13680;49.936;11.344;2022-08-19T03:48:35;96204.88;;;21.54;82.30
25855;BME280;13680;49.936;11.344;2022-08-19T03:51:02;96194.34;;;21.52;82.83
25855;BME280;13680;49.936;11.344;2022-08-19T03:53:30;96186.16;;;21.56;82.25
25855;BME280;13680;49.936;11.344;2022-08-19T03:55:56;96171.72;;;21.59;82.24
25855;BME280;13680;49.936;11.344;2022-08-19T03:58:25;96157.63;;;21.61;82.10
25855;BME280;13680;49.936;11.344;2022-08-19T04:00:50;96151.78;;;21.55;82.52
25855;BME280;13680;49.936;11.344;2022-08-19T04:03:16;96136.91;;;21.56;82.35
25855;BME280;13680;49.936;11.344;2022-08-19T04:05:44;96141.63;;;21.59;82.33
25855;BME280;13680;49.936;11.344;2022-08-19T04:08:09;96138.88;;;21.55;81.32
25855;BME280;13680;49.936;11.344;2022-08-19T04:10:36;96137.22;;;21.40;82.07
25855;BME280;13680;49.936;11.344;2022-08-19T04:13:02;96148.56;;;21.38;82.40
25855;BME280;13680;49.936;11.344;2022-08-19T04:15:29;96142.34;;;21.49;81.82
25855;BME280;13680;49.936;11.344;2022-08-19T04:17:56;96149.34;;;21.42;82.08
25855;BME280;13680;49.936;11.344;2022-08-19T04:20:21;96157.97;;;21.45;82.45
25855;BME280;13680;49.936;11.344;2022-08-19T04:22:47;96157.97;;;21.45;82.05
25855;BME280;13680;49.936;11.344;2022-08-19T04:25:12;96156.78;;;21.46;81.87
25855;BME280;13680;49.936;11.344;2022-08-19T04:27:38;96156.38;;;21.44;82.60
25855;BME280;13680;49.936;11.344;2022-08-19T04:30:04;96151.78;;;21.55;81.78
25855;BME280;13680;49.936;11.344;2022-08-19T04:32:29;96163.41;;;21.48;81.22
25855;BME280;13680;49.936;11.344;2022-08-19T04:34:57;96173.22;;;21.53;81.26
25855;BME280;13680;49.936;11.344;2022-08-19T04:37:24;96177.53;;;21.54;80.85
25855;BME280;13680;49.936;11.344;2022-08-19T04:39:51;96191.19;;;21.54;80.78
25855;BME280;13680;49.936;11.344;2022-08-19T04:42:35;96203.31;;;21.53;81.11
25855;BME280;13680;49.936;11.344;2022-08-19T04:45:10;96222.13;;;21.58;81.23
25855;BME280;13680;49.936;11.344;2022-08-19T04:47:37;96224.03;;;21.54;81.48
25855;BME280;13680;49.936;11.344;2022-08-19T04:50:03;96220.47;;;21.42;82.00
25855;BME280;13680;49.936;11.344;2022-08-19T04:52:29;96226.72;;;21.47;82.71
25855;BME280;13680;49.936;11.344;2022-08-19T04:54:56;96233.78;;;21.51;82.82
25855;BME280;13680;49.936;11.344;2022-08-19T04:57:22;96232.25;;;21.54;82.54
25855;BME280;13680;49.936;11.344;2022-08-19T04:59:47;96238.88;;;21.53;82.61
25855;BME280;13680;49.936;11.344;2022-08-19T05:02:13;96248.59;;;21.47;82.86
25855;BME280;13680;49.936;11.344;2022-08-19T05:04:38;96256.88;;;21.54;82.96
25855;BME280;13680;49.936;11.344;2022-08-19T05:07:05;96273.69;;;21.56;81.69
25855;BME280;13680;49.936;11.344;2022-08-19T05:09:31;96288.09;;;21.49;82.64
25855;BME280;13680;49.936;11.344;2022-08-19T05:11:56;96286.91;;;21.47;82.53
25855;BME280;13680;49.936;11.344;2022-08-19T05:14:22;96286.13;;;21.42;83.46
25855;BME280;13680;49.936;11.344;2022-08-19T05:16:48;96286.88;;;21.43;83.39
25855;BME280;13680;49.936;11.344;2022-08-19T05:19:14;96283.78;;;21.45;82.92
25855;BME280;13680;49.936;11.344;2022-08-19T05:21:59;96289.25;;;21.48;82.72
25855;BME280;13680;49.936;11.344;2022-08-19T05:24:44;96289.66;;;21.47;82.77
25855;BME280;13680;49.936;11.344;2022-08-19T05:27:09;96297.03;;;21.39;83.15
25855;BME280;13680;49.936;11.344;2022-08-19T05:29:35;96295.47;;;21.41;83.12
25855;BME280;13680;49.936;11.344;2022-08-19T05:32:05;96298.56;;;21.36;83.94
25855;BME280;13680;49.936;11.344;2022-08-19T05:34:33;96304.09;;;21.44;83.90
25855;BME280;13680;49.936;11.344;2022-08-19T05:37:01;96304.03;;;21.36;84.02
25855;BME280;13680;49.936;11.344;2022-08-19T05:39:28;96294.31;;;21.42;84.33
25855;BME280;13680;49.936;11.344;2022-08-19T05:41:57;96301.78;;;21.53;83.95
25855;BME280;13680;49.936;11.344;2022-08-19T05:44:25;96303.38;;;21.54;83.98
25855;BME280;13680;49.936;11.344;2022-08-19T05:46:51;96308.91;;;21.61;83.68
25855;BME280;13680;49.936;11.344;2022-08-19T05:49:19;96314.78;;;21.67;83.26
25855;BME280;13680;49.936;11.344;2022-08-19T05:51:44;96319.50;;;21.66;83.03
25855;BME280;13680;49.936;11.344;2022-08-19T05:54:10;96316.78;;;21.73;82.75
25855;BME280;13680;49.936;11.344;2022-08-19T05:56:39;96317.19;;;21.76;82.35
25855;BME280;13680;49.936;11.344;2022-08-19T05:59:06;96314.84;;;21.74;82.47
25855;BME280;13680;49.936;11.344;2022-08-19T06:01:37;96309.72;;;21.72;82.81
25855;BME280;13680;49.936;11.344;2022-08-19T06:04:03;96314.47;;;21.79;82.56
25855;BME280;13680;49.936;11.344;2022-08-19T06:06:29;96321.50;;;21.84;82.61
25855;BME280;13680;49.936;11.344;2022-08-19T06:08:54;96313.66;;;21.75;82.44
25855;BME280;13680;49.936;11.344;2022-08-19T06:11:32;96318.03;;;21.87;82.13
25855;BME280;13680;49.936;11.344;2022-08-19T06:14:02;96326.25;;;21.94;82.26
25855;BME280;13680;49.936;11.344;2022-08-19T06:16:28;96326.25;;;21.94;82.26
25855;BME280;13680;49.936;11.344;2022-08-19T06:18:55;96320.38;;;21.88;82.30
25855;BME280;13680;49.936;11.344;2022-08-19T06:21:24;96326.66;;;21.96;82.12
25855;BME280;13680;49.936;11.344;2022-08-19T06:23:51;96316.13;;;21.98;82.26
25855;BME280;13680;49.936;11.344;2022-08-19T06:26:18;96318.09;;;22.05;81.63
25855;BME280;13680;49.936;11.344;2022-08-19T06:28:45;96309.44;;;21.99;81.38
25855;BME280;13680;49.936;11.344;2022-08-19T06:31:16;96305.97;;;22.13;81.25
25855;BME280;13680;49.936;11.344;2022-08-19T06:33:42;96313.41;;;22.13;80.87
25855;BME280;13680;49.936;11.344;2022-08-19T06:36:25;96318.53;;;22.18;80.83
25855;BME280;13680;49.936;11.344;2022-08-19T06:39:03;96327.94;;;22.28;80.60
25855;BME280;13680;49.936;11.344;2022-08-19T06:41:30;96319.69;;;22.17;80.34
25855;BME280;13680;49.936;11.344;2022-08-19T06:43:56;96318.16;;;22.27;80.02
25855;BME280;13680;49.936;11.344;2022-08-19T06:46:22;96320.94;;;22.37;79.15
25855;BME280;13680;49.936;11.344;2022-08-19T06:48:48;96319.41;;;22.36;78.69
25855;BME280;13680;49.936;11.344;2022-08-19T06:51:15;96316.16;;;22.09;77.80
25855;BME280;13680;49.936;11.344;2022-08-19T06:53:53;96319.31;;;22.22;77.97
25855;BME280;13680;49.936;11.344;2022-08-19T06:56:25;96324.88;;;22.36;77.47
25855;BME280;13680;49.936;11.344;2022-08-19T06:58:56;96327.25;;;22.42;77.18
25855;BME280;13680;49.936;11.344;2022-08-19T07:01:22;96316.66;;;22.44;77.63
25855;BME280;13680;49.936;11.344;2022-08-19T07:03:47;96319.81;;;22.49;77.22
25855;BME280;13680;49.936;11.344;2022-08-19T07:06:16;96327.25;;;22.52;76.01
25855;BME280;13680;49.936;11.344;2022-08-19T07:08:47;96326.84;;;22.54;75.89
25855;BME280;13680;49.936;11.344;2022-08-19T07:11:15;96331.13;;;22.48;75.85
25855;BME280;13680;49.936;11.344;2022-08-19T07:13:41;96331.94;;;22.52;76.17
25855;BME280;13680;49.936;11.344;2022-08-19T07:16:12;96334.31;;;22.57;75.91
25855;BME280;13680;49.936;11.344;2022-08-19T07:18:38;96337.38;;;22.37;77.03
25855;BME280;13680;49.936;11.344;2022-08-19T07:21:13;96342.13;;;22.59;76.14
25855;BME280;13680;49.936;11.344;2022-08-19T07:23:39;96350.78;;;22.86;75.36
25855;BME280;13680;49.936;11.344;2022-08-19T07:26:31;96346.06;;;22.68;76.56
25855;BME280;13680;49.936;11.344;2022-08-19T07:28:55;96358.63;;;22.80;76.44
25855;BME280;13680;49.936;11.344;2022-08-19T07:31:25;96348.44;;;22.84;76.00
25855;BME280;13680;49.936;11.344;2022-08-19T07:33:53;96364.09;;;22.98;75.14
25855;BME280;13680;49.936;11.344;2022-08-19T07:36:25;96360.19;;;22.99;75.35
25855;BME280;13680;49.936;11.344;2022-08-19T07:38:51;96369.59;;;23.02;74.50
25855;BME280;13680;49.936;11.344;2022-08-19T07:41:22;96364.88;;;22.81;75.18
25855;BME280;13680;49.936;11.344;2022-08-19T07:43:48;96360.19;;;22.78;75.31
25855;BME280;13680;49.936;11.344;2022-08-19T07:46:14;96354.72;;;22.85;75.61
25855;BME280;13680;49.936;11.344;2022-08-19T07:48:42;96357.06;;;22.86;75.54
25855;BME280;13680;49.936;11.344;2022-08-19T07:51:12;96359.41;;;22.95;75.61
25855;BME280;13680;49.936;11.344;2022-08-19T07:53:38;96356.28;;;22.79;76.61
25855;BME280;13680;49.936;11.344;2022-08-19T07:56:04;96359.41;;;22.95;76.79
25855;BME280;13680;49.936;11.344;2022-08-19T07:58:32;96370.34;;;22.81;76.58
25855;BME280;13680;49.936;11.344;2022-08-19T08:00:59;96374.63;;;22.64;78.32
25855;BME280;13680;49.936;11.344;2022-08-19T08:03:26;96376.97;;;22.62;78.86
25855;BME280;13680;49.936;11.344;2022-08-19T08:06:12;96376.59;;;22.63;78.57
25855;BME280;13680;49.936;11.344;2022-08-19T08:08:57;96372.69;;;22.68;79.24
25855;BME280;13680;49.936;11.344;2022-08-19T08:12:07;96359.00;;;22.71;78.46
25855;BME280;13680;49.936;11.344;2022-08-19T08:14:37;96348.81;;;22.79;77.94
25855;BME280;13680;49.936;11.344;2022-08-19T08:17:05;96339.44;;;23.05;78.26
25855;BME280;13680;49.936;11.344;2022-08-19T08:19:31;96336.28;;;23.54;76.22
25855;BME280;13680;49.936;11.344;2022-08-19T08:21:59;96333.53;;;23.50;74.55
25855;BME280;13680;49.936;11.344;2022-08-19T08:24:27;96333.97;;;23.16;75.51
25855;BME280;13680;49.936;11.344;2022-08-19T08:26:53;96337.84;;;23.55;74.81
25855;BME280;13680;49.936;11.344;2022-08-19T08:29:19;96329.53;;;23.84;71.83
25855;BME280;13680;49.936;11.344;2022-08-19T08:31:46;96335.91;;;23.27;72.46
25855;BME280;13680;49.936;11.344;2022-08-19T08:34:13;96331.16;;;23.56;72.15
25855;BME280;13680;49.936;11.344;2022-08-19T08:36:41;96326.03;;;23.73;72.23
25855;BME280;13680;49.936;11.344;2022-08-19T08:39:11;96319.03;;;23.57;71.62
25855;BME280;13680;49.936;11.344;2022-08-19T08:42:04;96324.09;;;23.66;71.37
25855;BME280;13680;49.936;11.344;2022-08-19T08:44:41;96324.91;;;22.80;73.56
25855;BME280;13680;49.936;11.344;2022-08-19T08:47:14;96326.09;;;23.08;73.50
25855;BME280;13680;49.936;11.344;2022-08-19T08:52:22;96335.53;;;22.99;73.55
25855;BME280;13680;49.936;11.344;2022-08-19T08:54:51;96339.03;;;22.89;73.73
25855;BME280;13680;49.936;11.344;2022-08-19T08:57:33;96348.44;;;23.10;73.27
25855;BME280;13680;49.936;11.344;2022-08-19T09:00:03;96344.53;;;23.14;73.65
25855;BME280;13680;49.936;11.344;2022-08-19T09:02:30;96341.81;;;23.18;72.35
25855;BME280;13680;49.936;11.344;2022-08-19T09:04:55;96339.81;;;22.79;73.16
25855;BME280;13680;49.936;11.344;2022-08-19T09:10:11;96347.69;;;23.09;73.08
25855;BME280;13680;49.936;11.344;2022-08-19T09:12:51;96348.84;;;23.19;72.52
25855;BME280;13680;49.936;11.344;2022-08-19T09:15:25;96348.84;;;23.01;73.58
25855;BME280;13680;49.936;11.344;2022-08-19T09:17:52;96344.13;;;23.09;72.67
25855;BME280;13680;49.936;11.344;2022-08-19T09:20:21;96357.78;;;22.62;75.17
25855;BME280;13680;49.936;11.344;2022-08-19T09:22:46;96353.88;;;22.63;74.69
25855;BME280;13680;49.936;11.344;2022-08-19T09:25:16;96350.78;;;22.89;73.77
25855;BME280;13680;49.936;11.344;2022-08-19T09:27:43;96350.78;;;22.97;74.05
25855;BME280;13680;49.936;11.344;2022-08-19T09:30:17;96350.00;;;22.96;73.42
25855;BME280;13680;49.936;11.344;2022-08-19T09:32:44;96347.66;;;22.95;73.06
25855;BME280;13680;49.936;11.344;2022-08-19T09:35:10;96344.19;;;23.19;72.24
25855;BME280;13680;49.936;11.344;2022-08-19T09:37:36;96345.31;;;23.11;72.41
25855;BME280;13680;49.936;11.344;2022-08-19T09:40:02;96351.59;;;23.30;71.82
25855;BME280;13680;49.936;11.344;2022-08-19T09:42:28;96347.28;;;23.25;72.47
25855;BME280;13680;49.936;11.344;2022-08-19T09:44:53;96344.91;;;22.98;72.93
25855;BME280;13680;49.936;11.344;2022-08-19T09:47:18;96347.66;;;23.13;73.24
25855;BME280;13680;49.936;11.344;2022-08-19T09:49:44;96353.56;;;23.29;72.25
25855;BME280;13680;49.936;11.344;2022-08-19T09:52:10;96349.25;;;23.25;72.01
25855;BME280;13680;49.936;11.344;2022-08-19T09:54:37;96350.03;;;23.29;72.13
25855;BME280;13680;49.936;11.344;2022-08-19T09:57:03;96350.81;;;23.33;71.61
25855;BME280;13680;49.936;11.344;2022-08-19T09:59:29;96355.91;;;23.05;72.66
25855;BME280;13680;49.936;11.344;2022-08-19T10:01:54;96353.94;;;23.28;72.43
25855;BME280;13680;49.936;11.344;2022-08-19T10:04:20;96364.50;;;23.54;70.81
25855;BME280;13680;49.936;11.344;2022-08-19T10:06:47;96361.75;;;23.62;69.94
25855;BME280;13680;49.936;11.344;2022-08-19T10:09:14;96367.28;;;23.33;72.28
25855;BME280;13680;49.936;11.344;2022-08-19T10:11:42;96351.59;;;23.12;72.10
25855;BME280;13680;49.936;11.344;2022-08-19T10:14:08;96357.84;;;22.94;72.74
25855;BME280;13680;49.936;11.344;2022-08-19T10:16:35;96358.63;;;22.84;73.26
25855;BME280;13680;49.936;11.344;2022-08-19T10:19:01;96357.06;;;22.83;73.15
25855;BME280;13680;49.936;11.344;2022-08-19T10:21:30;96351.56;;;22.97;73.27
25855;BME280;13680;49.936;11.344;2022-08-19T10:23:59;96352.75;;;23.11;72.97
25855;BME280;13680;49.936;11.344;2022-08-19T10:26:28;96344.91;;;23.13;72.62
25855;BME280;13680;49.936;11.344;2022-08-19T10:28:55;96350.00;;;23.47;71.58
25855;BME280;13680;49.936;11.344;2022-08-19T10:31:26;96347.69;;;23.27;71.43
25855;BME280;13680;49.936;11.344;2022-08-19T10:33:52;96340.97;;;23.57;71.08
25855;BME280;13680;49.936;11.344;2022-08-19T10:36:30;96351.19;;;23.53;71.00
25855;BME280;13680;49.936;11.344;2022-08-19T10:38:58;96346.88;;;23.23;71.75
25855;BME280;13680;49.936;11.344;2022-08-19T10:41:30;96355.47;;;22.96;72.22
25855;BME280;13680;49.936;11.344;2022-08-19T10:44:00;96355.94;;;23.31;71.60
25855;BME280;13680;49.936;11.344;2022-08-19T10:46:27;96359.44;;;23.39;71.03
25855;BME280;13680;49.936;11.344;2022-08-19T10:48:58;96366.47;;;23.47;70.51
25855;BME280;13680;49.936;11.344;2022-08-19T10:51:24;96357.41;;;23.75;70.22
25855;BME280;13680;49.936;11.344;2022-08-19T10:54:08;96354.22;;;23.88;69.30
25855;BME280;13680;49.936;11.344;2022-08-19T10:56:34;96350.31;;;23.85;68.57
25855;BME280;13680;49.936;11.344;2022-08-19T10:59:26;96347.19;;;23.83;69.05
25855;BME280;13680;49.936;11.344;2022-08-19T11:02:03;96345.63;;;23.93;69.14
25855;BME280;13680;49.936;11.344;2022-08-19T11:04:28;96353.47;;;23.91;68.38
25855;BME280;13680;49.936;11.344;2022-08-19T11:06:55;96362.84;;;24.08;67.97
25855;BME280;13680;49.936;11.344;2022-08-19T11:09:23;96359.34;;;23.93;68.20
25855;BME280;13680;49.936;11.344;2022-08-19T11:11:55;96356.94;;;24.06;68.03
25855;BME280;13680;49.936;11.344;2022-08-19T11:14:23;96357.28;;;24.22;67.50
25855;BME280;13680;49.936;11.344;2022-08-19T11:16:51;96362.34;;;24.27;67.28
25855;BME280;13680;49.936;11.344;2022-08-19T11:19:18;96337.19;;;24.32;67.24
25855;BME280;13680;49.936;11.344;2022-08-19T11:21:47;96347.09;;;24.19;67.05
25855;BME280;13680;49.936;11.344;2022-08-19T11:24:16;96343.03;;;24.42;67.21
25855;BME280;13680;49.936;11.344;2022-08-19T11:26:44;96356.06;;;24.30;66.55
25855;BME280;13680;49.936;11.344;2022-08-19T11:29:10;96359.19;;;24.32;66.31
25855;BME280;13680;49.936;11.344;2022-08-19T11:31:40;96358.75;;;24.38;66.22
25855;BME280;13680;49.936;11.344;2022-08-19T11:34:08;96350.63;;;24.16;66.62
25855;BME280;13680;49.936;11.344;2022-08-19T11:36:37;96364.69;;;24.29;66.60
25855;BME280;13680;49.936;11.344;2022-08-19T11:39:05;96364.81;;;23.89;68.60
25855;BME280;13680;49.936;11.344;2022-08-19T11:41:31;96364.03;;;23.99;68.19
25855;BME280;13680;49.936;11.344;2022-08-19T11:43:56;96368.00;;;23.62;68.37
25855;BME280;13680;49.936;11.344;2022-08-19T11:46:24;96362.09;;;23.82;68.59
25855;BME280;13680;49.936;11.344;2022-08-19T11:48:49;96361.31;;;23.78;69.02
25855;BME280;13680;49.936;11.344;2022-08-19T11:51:20;96353.47;;;23.87;68.04
25855;BME280;13680;49.936;11.344;2022-08-19T11:53:47;96357.81;;;23.70;68.44
25855;BME280;13680;49.936;11.344;2022-08-19T11:56:12;96353.88;;;23.75;68.54
25855;BME280;13680;49.936;11.344;2022-08-19T11:58:39;96351.91;;;23.75;68.85
25855;BME280;13680;49.936;11.344;2022-08-19T12:01:08;96354.25;;;23.80;68.69
25855;BME280;13680;49.936;11.344;2022-08-19T12:03:34;96349.50;;;23.88;68.52
25855;BME280;13680;49.936;11.344;2022-08-19T12:06:05;96355.81;;;23.89;68.25
25855;BME280;13680;49.936;11.344;2022-08-19T12:08:30;96354.63;;;23.82;69.19
25855;BME280;13680;49.936;11.344;2022-08-19T12:10:56;96353.06;;;23.85;68.81
25855;BME280;13680;49.936;11.344;2022-08-19T12:13:21;96356.25;;;23.62;68.94
25855;BME280;13680;49.936;11.344;2022-08-19T12:15:47;96360.94;;;23.65;69.10
25855;BME280;13680;49.936;11.344;2022-08-19T12:18:13;96360.94;;;23.76;68.99
25855;BME280;13680;49.936;11.344;2022-08-19T12:20:42;96368.81;;;23.45;69.73
25855;BME280;13680;49.936;11.344;2022-08-19T12:23:09;96368.00;;;23.62;69.09
25855;BME280;13680;49.936;11.344;2022-08-19T12:25:36;96365.69;;;23.57;69.58
25855;BME280;13680;49.936;11.344;2022-08-19T12:28:02;96364.88;;;23.71;69.12
25855;BME280;13680;49.936;11.344;2022-08-19T12:30:28;96355.88;;;23.67;68.89
25855;BME280;13680;49.936;11.344;2022-08-19T12:32:54;96361.00;;;23.47;69.02
25855;BME280;13680;49.936;11.344;2022-08-19T12:35:19;96360.19;;;23.57;68.52
25855;BME280;13680;49.936;11.344;2022-08-19T12:37:46;96357.47;;;23.03;70.20
25855;BME280;13680;49.936;11.344;2022-08-19T12:40:13;96357.81;;;22.83;70.30
25855;BME280;13680;49.936;11.344;2022-08-19T12:42:39;96354.34;;;23.26;69.14
25855;BME280;13680;49.936;11.344;2022-08-19T12:45:12;96357.47;;;23.46;68.03
25855;BME280;13680;49.936;11.344;2022-08-19T12:47:39;96359.84;;;23.33;69.07
25855;BME280;13680;49.936;11.344;2022-08-19T12:50:05;96355.94;;;23.31;68.64
25855;BME280;13680;49.936;11.344;2022-08-19T12:52:34;96348.41;;;23.71;67.51
25855;BME280;13680;49.936;11.344;2022-08-19T12:55:04;96351.94;;;23.64;68.12
25855;BME280;13680;49.936;11.344;2022-08-19T12:57:30;96352.66;;;23.90;66.46
25855;BME280;13680;49.936;11.344;2022-08-19T13:02:26;96360.22;;;23.46;67.95
25855;BME280;13680;49.936;11.344;2022-08-19T13:04:51;96361.00;;;23.18;68.88